Time;durP1;ratioP1;P1;durP2;ratioP2;P2;SDS_P1;SDS_P2;PMS_P1;PMS_P2;Temp;Humidity;BMP_temperature;BMP_pressure;BME280_temperature;BME280_humidity;BME280_pressure;Samples;Min_cycle;Max_cycle;Signal;HPM_P1;HPM_P2
2022/02/21 00:00:07;;;;;;;6.12;3.90;;;;;;;;;;1749738;81;21015;-70
2022/02/21 00:02:35;;;;;;;6.53;3.45;;;;;;;;;;1750124;81;21028;-69
2022/02/21 00:05:03;;;;;;;8.53;4.33;;;;;;;;;;1748664;81;21040;-70
2022/02/21 00:07:30;;;;;;;6.47;3.62;;;;;;;;;;1746514;81;21009;-69
2022/02/21 00:09:56;;;;;;;7.33;3.50;;;;;;;;;;1750065;81;21010;-69
2022/02/21 00:12:22;;;;;;;7.12;4.00;;;;;;;;;;1746707;81;20990;-69
2022/02/21 00:14:47;;;;;;;8.55;3.70;;;;;;;;;;1748792;81;21076;-69
2022/02/21 00:17:14;;;;;;;7.78;3.90;;;;;;;;;;1748975;81;21021;-69
2022/02/21 00:19:40;;;;;;;6.97;3.40;;;;;;;;;;1748698;81;21065;-69
2022/02/21 00:22:06;;;;;;;6.85;3.62;;;;;;;;;;1749164;81;20982;-69
2022/02/21 00:24:34;;;;;;;6.72;3.65;;;;;;;;;;1748573;81;21088;-69
2022/02/21 00:27:00;;;;;;;7.33;3.60;;;;;;;;;;1750152;81;21017;-69
2022/02/21 00:29:28;;;;;;;5.92;3.55;;;;;;;;;;1747717;81;21057;-69
2022/02/21 00:31:54;;;;;;;6.20;3.33;;;;;;;;;;1748876;81;21208;-68
2022/02/21 00:34:19;;;;;;;5.67;3.45;;;;;;;;;;1731567;82;21010;-69
2022/02/21 00:36:45;;;;;;;6.65;3.42;;;;;;;;;;1736718;82;20962;-68
2022/02/21 00:39:12;;;;;;;5.60;3.58;;;;;;;;;;1739156;82;21040;-68
2022/02/21 00:41:38;;;;;;;8.98;4.30;;;;;;;;;;1739225;82;21060;-69
2022/02/21 00:44:04;;;;;;;4.97;3.10;;;;;;;;;;1740164;82;21025;-69
2022/02/21 00:46:30;;;;;;;6.03;3.65;;;;;;;;;;1739036;82;21103;-69
2022/02/21 00:48:56;;;;;;;7.47;3.65;;;;;;;;;;1739153;82;21037;-69
2022/02/21 00:51:22;;;;;;;6.35;2.85;;;;;;;;;;1737739;82;22130;-69
2022/02/21 00:53:48;;;;;;;8.85;4.03;;;;;;;;;;1699734;83;21036;-69
2022/02/21 00:56:16;;;;;;;8.68;4.62;;;;;;;;;;1685417;84;21061;-69
2022/02/21 00:58:42;;;;;;;8.95;4.42;;;;;;;;;;1686260;84;21600;-69
2022/02/21 01:01:08;;;;;;;8.68;4.25;;;;;;;;;;1680462;84;21073;-69
2022/02/21 01:03:34;;;;;;;6.83;3.77;;;;;;;;;;1703513;83;21610;-69
2022/02/21 01:06:00;;;;;;;6.97;4.15;;;;;;;;;;1698146;83;21123;-68
2022/02/21 01:08:25;;;;;;;6.70;2.90;;;;;;;;;;1703866;83;20992;-68
2022/02/21 01:10:51;;;;;;;6.28;3.00;;;;;;;;;;1680726;84;21124;-69
2022/02/21 01:13:18;;;;;;;7.05;3.60;;;;;;;;;;1683940;84;21550;-70
2022/02/21 01:15:45;;;;;;;8.18;3.80;;;;;;;;;;1683597;84;21549;-69
2022/02/21 01:18:12;;;;;;;6.00;3.25;;;;;;;;;;1683181;84;21553;-68
2022/02/21 01:20:38;;;;;;;5.53;3.35;;;;;;;;;;1736426;82;21461;-69
2022/02/21 01:23:04;;;;;;;10.05;3.55;;;;;;;;;;1735617;82;21086;-71
2022/02/21 01:25:30;;;;;;;6.03;3.27;;;;;;;;;;1736979;82;21033;-69
2022/02/21 01:27:56;;;;;;;8.63;4.08;;;;;;;;;;1734345;82;21038;-69
2022/02/21 01:30:22;;;;;;;8.18;4.22;;;;;;;;;;1736378;82;21065;-69
2022/02/21 01:32:48;;;;;;;6.50;3.60;;;;;;;;;;1733619;82;21159;-69
2022/02/21 01:35:14;;;;;;;6.80;3.47;;;;;;;;;;1737146;80;21040;-70
2022/02/21 01:37:40;;;;;;;8.00;4.17;;;;;;;;;;1738032;82;21448;-69
2022/02/21 01:40:07;;;;;;;5.87;3.30;;;;;;;;;;1735613;82;20976;-69
2022/02/21 01:42:35;;;;;;;6.35;3.27;;;;;;;;;;1735682;82;21012;-70
2022/02/21 01:45:00;;;;;;;6.30;3.90;;;;;;;;;;1733353;82;21036;-70
2022/02/21 01:47:27;;;;;;;7.25;3.60;;;;;;;;;;1734686;82;21043;-69
2022/02/21 01:49:53;;;;;;;8.48;4.03;;;;;;;;;;1737014;82;21020;-69
2022/02/21 01:52:19;;;;;;;5.35;3.08;;;;;;;;;;1734802;82;21123;-70
2022/02/21 01:54:45;;;;;;;6.60;2.98;;;;;;;;;;1731118;82;21063;-70
2022/02/21 01:57:11;;;;;;;9.63;3.47;;;;;;;;;;1736369;82;21122;-69
2022/02/21 01:59:38;;;;;;;8.80;3.77;;;;;;;;;;1731981;82;21024;-70
2022/02/21 02:04:46;;;;;;;11.75;5.97;;;;;;;;;;1710474;80;21167;-70
2022/02/21 02:07:13;;;;;;;8.20;4.12;;;;;;;;;;1702074;83;21025;-69
2022/02/21 02:09:40;;;;;;;6.78;3.85;;;;;;;;;;1656350;84;21040;-69
2022/02/21 02:12:08;;;;;;;7.78;3.35;;;;;;;;;;1680140;84;21105;-69
2022/02/21 02:14:35;;;;;;;9.58;4.12;;;;;;;;;;1679688;84;21503;-69
2022/02/21 02:17:02;;;;;;;5.55;3.40;;;;;;;;;;1679857;84;21566;-69
2022/02/21 02:19:28;;;;;;;5.87;3.17;;;;;;;;;;1667842;86;21569;-69
2022/02/21 02:21:55;;;;;;;7.45;3.47;;;;;;;;;;1640177;86;21034;-69
2022/02/21 02:24:22;;;;;;;6.08;3.40;;;;;;;;;;1642113;86;21026;-69
2022/02/21 02:26:49;;;;;;;7.62;3.85;;;;;;;;;;1635875;86;20981;-70
2022/02/21 02:29:15;;;;;;;8.45;4.00;;;;;;;;;;1678425;84;21056;-69
2022/02/21 02:31:41;;;;;;;6.50;3.67;;;;;;;;;;1683611;84;21055;-70
2022/02/21 02:34:07;;;;;;;10.65;5.12;;;;;;;;;;1682412;83;21024;-69
2022/02/21 02:36:33;;;;;;;8.75;4.40;;;;;;;;;;1682201;84;21012;-69
2022/02/21 02:38:59;;;;;;;11.83;4.67;;;;;;;;;;1681120;84;22127;-69
2022/02/21 02:41:25;;;;;;;9.00;4.70;;;;;;;;;;1680186;84;21207;-69
2022/02/21 02:43:51;;;;;;;6.20;3.62;;;;;;;;;;1680284;84;21075;-70
2022/02/21 02:46:17;;;;;;;7.85;3.65;;;;;;;;;;1680765;84;21048;-69
2022/02/21 02:48:43;;;;;;;7.80;4.03;;;;;;;;;;1664076;86;20978;-70
2022/02/21 02:51:09;;;;;;;5.95;3.55;;;;;;;;;;1684129;84;21016;-69
2022/02/21 02:53:35;;;;;;;7.10;3.62;;;;;;;;;;1685894;84;21661;-68
2022/02/21 02:56:00;;;;;;;6.75;2.98;;;;;;;;;;1689545;84;21107;-69
2022/02/21 02:58:26;;;;;;;5.58;3.62;;;;;;;;;;1691565;83;21149;-68
2022/02/21 03:00:53;;;;;;;6.65;3.50;;;;;;;;;;1664075;86;21127;-69
2022/02/21 03:03:19;;;;;;;5.97;3.65;;;;;;;;;;1673086;84;21591;-69
2022/02/21 03:05:45;;;;;;;5.30;3.35;;;;;;;;;;1714328;82;21026;-69
2022/02/21 03:08:12;;;;;;;5.60;3.58;;;;;;;;;;1714469;83;21105;-69
2022/02/21 03:10:37;;;;;;;5.95;3.42;;;;;;;;;;1712036;82;21101;-69
2022/02/21 03:13:04;;;;;;;5.87;3.42;;;;;;;;;;1717144;83;21085;-68
2022/02/21 03:15:30;;;;;;;9.50;3.60;;;;;;;;;;1710713;82;22067;-68
2022/02/21 03:17:56;;;;;;;6.15;3.67;;;;;;;;;;1715166;83;21580;-68
2022/02/21 03:20:22;;;;;;;5.92;3.52;;;;;;;;;;1712409;82;21041;-69
2022/02/21 03:22:48;;;;;;;7.15;3.90;;;;;;;;;;1718446;82;21005;-68
2022/02/21 03:25:14;;;;;;;5.75;3.67;;;;;;;;;;1715770;83;21044;-68
2022/02/21 03:27:41;;;;;;;6.62;3.72;;;;;;;;;;1714640;83;21025;-69
2022/02/21 03:30:07;;;;;;;7.35;3.92;;;;;;;;;;1712045;83;21500;-68
2022/02/21 03:32:33;;;;;;;8.38;4.35;;;;;;;;;;1713141;83;20998;-68
2022/02/21 03:34:59;;;;;;;5.45;3.58;;;;;;;;;;1720039;83;21049;-69
2022/02/21 03:37:25;;;;;;;8.23;3.58;;;;;;;;;;1713863;83;21066;-69
2022/02/21 03:39:51;;;;;;;7.85;4.20;;;;;;;;;;1715134;82;21080;-69
2022/02/21 03:42:17;;;;;;;5.37;3.65;;;;;;;;;;1712239;82;21002;-69
2022/02/21 03:44:43;;;;;;;6.25;3.98;;;;;;;;;;1716180;83;21527;-69
2022/02/21 03:47:09;;;;;;;7.35;3.85;;;;;;;;;;1713753;82;21065;-69
2022/02/21 03:49:35;;;;;;;5.53;3.15;;;;;;;;;;1716758;83;21014;-70
2022/02/21 03:52:01;;;;;;;7.17;3.50;;;;;;;;;;1711680;82;21048;-69
2022/02/21 03:54:28;;;;;;;7.55;3.80;;;;;;;;;;1715460;83;21110;-69
2022/02/21 03:56:53;;;;;;;6.78;4.37;;;;;;;;;;1718294;82;21044;-69
2022/02/21 03:59:19;;;;;;;6.50;3.92;;;;;;;;;;1714837;83;21065;-70
2022/02/21 04:01:45;;;;;;;7.65;4.10;;;;;;;;;;1713610;83;21491;-70
2022/02/21 04:04:11;;;;;;;9.03;4.53;;;;;;;;;;1714813;82;21116;-70
2022/02/21 04:06:37;;;;;;;6.33;3.85;;;;;;;;;;1709886;82;21029;-70
2022/02/21 04:09:03;;;;;;;6.87;3.02;;;;;;;;;;1717838;82;21500;-68
2022/02/21 04:11:29;;;;;;;9.23;4.20;;;;;;;;;;1718551;82;21046;-69
2022/02/21 04:13:55;;;;;;;7.22;3.75;;;;;;;;;;1716095;82;21121;-69
2022/02/21 04:16:21;;;;;;;8.35;4.78;;;;;;;;;;1718176;82;21020;-69
2022/02/21 04:18:47;;;;;;;3.98;2.92;;;;;;;;;;1716654;82;21061;-69
2022/02/21 04:21:13;;;;;;;5.00;3.52;;;;;;;;;;1719397;82;21088;-70
2022/02/21 04:23:39;;;;;;;6.40;3.80;;;;;;;;;;1713563;82;21041;-69
2022/02/21 04:26:07;;;;;;;5.97;3.45;;;;;;;;;;1718976;82;21580;-69
2022/02/21 04:28:33;;;;;;;6.90;3.60;;;;;;;;;;1715213;82;21020;-68
2022/02/21 04:30:59;;;;;;;6.28;4.00;;;;;;;;;;1718407;82;21056;-68
2022/02/21 04:33:24;;;;;;;7.20;3.92;;;;;;;;;;1717279;82;21088;-68
2022/02/21 04:35:50;;;;;;;6.62;3.83;;;;;;;;;;1714270;82;20993;-68
2022/02/21 04:38:16;;;;;;;6.97;4.05;;;;;;;;;;1715710;82;21706;-67
2022/02/21 04:40:42;;;;;;;5.95;3.40;;;;;;;;;;1716827;82;21049;-69
2022/02/21 04:43:08;;;;;;;7.92;4.55;;;;;;;;;;1703484;83;21587;-68
2022/02/21 04:45:35;;;;;;;6.67;3.47;;;;;;;;;;1698928;83;21080;-69
2022/02/21 04:48:00;;;;;;;6.90;4.30;;;;;;;;;;1702584;83;21573;-71
2022/02/21 04:50:26;;;;;;;6.45;4.08;;;;;;;;;;1699448;83;21022;-70
2022/02/21 04:52:52;;;;;;;6.87;4.05;;;;;;;;;;1700992;83;21065;-69
2022/02/21 04:55:18;;;;;;;7.28;4.55;;;;;;;;;;1700282;83;22091;-70
2022/02/21 04:57:44;;;;;;;8.28;4.70;;;;;;;;;;1701387;83;20998;-70
2022/02/21 05:00:10;;;;;;;8.28;4.50;;;;;;;;;;1702268;83;21090;-70
2022/02/21 05:02:36;;;;;;;8.85;4.42;;;;;;;;;;1703557;83;21029;-70
2022/02/21 05:05:03;;;;;;;6.95;4.15;;;;;;;;;;1705682;83;21595;-70
2022/02/21 05:07:30;;;;;;;6.35;3.75;;;;;;;;;;1717732;83;21004;-69
2022/02/21 05:09:56;;;;;;;10.80;5.40;;;;;;;;;;1707864;83;21058;-70
2022/02/21 05:12:22;;;;;;;9.98;5.45;;;;;;;;;;1696214;83;21042;-70
2022/02/21 05:14:48;;;;;;;8.45;4.33;;;;;;;;;;1701498;83;21543;-70
2022/02/21 05:17:14;;;;;;;7.10;4.33;;;;;;;;;;1704077;83;21020;-70
2022/02/21 05:19:41;;;;;;;9.38;4.70;;;;;;;;;;1708871;82;21536;-70
2022/02/21 05:22:07;;;;;;;9.40;4.72;;;;;;;;;;1706851;83;21025;-70
2022/02/21 05:24:33;;;;;;;6.85;4.30;;;;;;;;;;1694088;84;22324;-70
2022/02/21 05:26:59;;;;;;;5.80;3.80;;;;;;;;;;1693152;84;21088;-70
2022/02/21 05:29:25;;;;;;;7.62;4.05;;;;;;;;;;1673788;85;21023;-70
2022/02/21 05:31:51;;;;;;;4.45;3.08;;;;;;;;;;1656083;85;20993;-71
2022/02/21 05:34:17;;;;;;;6.85;3.52;;;;;;;;;;1700537;84;20974;-71
2022/02/21 05:36:43;;;;;;;7.25;4.05;;;;;;;;;;1693228;84;21095;-71
2022/02/21 05:39:09;;;;;;;8.05;3.83;;;;;;;;;;1687886;84;21116;-71
2022/02/21 05:41:35;;;;;;;10.55;4.85;;;;;;;;;;1708386;83;21012;-70
2022/02/21 05:44:01;;;;;;;9.78;4.70;;;;;;;;;;1715124;83;21058;-70
2022/02/21 05:46:27;;;;;;;7.47;4.58;;;;;;;;;;1705253;83;21016;-70
2022/02/21 05:48:53;;;;;;;9.00;4.87;;;;;;;;;;1715573;83;20973;-71
2022/02/21 05:51:19;;;;;;;7.10;4.20;;;;;;;;;;1717465;83;21017;-70
2022/02/21 05:53:47;;;;;;;5.22;3.22;;;;;;;;;;1708108;82;21010;-70
2022/02/21 05:56:13;;;;;;;7.90;4.10;;;;;;;;;;1709911;82;21034;-71
2022/02/21 05:58:40;;;;;;;10.32;4.00;;;;;;;;;;1713468;83;20986;-71
2022/02/21 06:01:06;;;;;;;7.62;4.33;;;;;;;;;;1709799;83;21582;-72
2022/02/21 06:03:32;;;;;;;7.05;3.98;;;;;;;;;;1714185;83;21074;-72
2022/02/21 06:05:58;;;;;;;8.15;4.53;;;;;;;;;;1723867;81;21049;-72
2022/02/21 06:08:24;;;;;;;8.13;4.70;;;;;;;;;;1745536;81;21048;-72
2022/02/21 06:10:50;;;;;;;9.10;4.83;;;;;;;;;;1741937;81;21032;-72
2022/02/21 06:13:16;;;;;;;8.08;4.22;;;;;;;;;;1744313;81;21026;-72
2022/02/21 06:15:43;;;;;;;8.15;4.12;;;;;;;;;;1745598;81;21089;-72
2022/02/21 06:18:09;;;;;;;9.03;3.92;;;;;;;;;;1743717;81;21017;-72
2022/02/21 06:20:35;;;;;;;10.18;5.05;;;;;;;;;;1745696;81;21053;-71
2022/02/21 06:23:01;;;;;;;7.78;3.95;;;;;;;;;;1741794;81;21008;-72
2022/02/21 06:25:27;;;;;;;8.20;4.25;;;;;;;;;;1751992;81;20993;-72
2022/02/21 06:27:53;;;;;;;6.72;4.40;;;;;;;;;;1729574;81;21541;-70
2022/02/21 06:30:19;;;;;;;7.05;3.95;;;;;;;;;;1711485;83;21015;-71
2022/02/21 06:32:45;;;;;;;9.63;4.00;;;;;;;;;;1695659;83;21568;-71
2022/02/21 06:35:11;;;;;;;6.72;4.15;;;;;;;;;;1747017;81;21060;-71
2022/02/21 06:37:45;;;;;;;7.03;3.98;;;;;;;;;;1745107;81;21009;-72
2022/02/21 06:40:11;;;;;;;9.38;3.87;;;;;;;;;;1739572;81;21013;-72
2022/02/21 06:42:38;;;;;;;5.87;3.72;;;;;;;;;;1742908;81;21537;-72
2022/02/21 06:45:04;;;;;;;7.53;4.22;;;;;;;;;;1740390;81;21727;-73
2022/02/21 06:47:31;;;;;;;9.10;4.40;;;;;;;;;;1742437;81;21600;-71
2022/02/21 06:49:57;;;;;;;6.67;4.25;;;;;;;;;;1743600;81;20988;-73
2022/02/21 06:52:23;;;;;;;13.18;7.12;;;;;;;;;;1733749;81;21089;-70
2022/02/21 06:54:52;;;;;;;6.53;4.15;;;;;;;;;;1736931;81;21037;-70
2022/02/21 06:57:19;;;;;;;7.42;3.60;;;;;;;;;;1721228;83;21004;-70
2022/02/21 06:59:47;;;;;;;7.75;4.00;;;;;;;;;;1741307;81;21524;-68
2022/02/21 07:02:13;;;;;;;6.25;3.67;;;;;;;;;;1734500;81;21094;-69
2022/02/21 07:04:39;;;;;;;6.62;4.10;;;;;;;;;;1744247;81;21017;-69
2022/02/21 07:07:05;;;;;;;6.00;3.22;;;;;;;;;;1757001;81;21484;-69
2022/02/21 07:09:31;;;;;;;6.87;4.47;;;;;;;;;;1760087;81;20995;-70
2022/02/21 07:11:57;;;;;;;6.20;3.33;;;;;;;;;;1760531;81;21609;-70
2022/02/21 07:14:23;;;;;;;6.95;4.20;;;;;;;;;;1749788;81;21099;-69
2022/02/21 07:16:49;;;;;;;8.48;3.77;;;;;;;;;;1752186;81;20961;-69
2022/02/21 07:19:15;;;;;;;9.20;4.45;;;;;;;;;;1754428;81;21495;-70
2022/02/21 07:21:42;;;;;;;6.35;3.95;;;;;;;;;;1753506;81;21025;-69
2022/02/21 07:24:10;;;;;;;6.05;4.22;;;;;;;;;;1753517;81;20978;-70
2022/02/21 07:26:36;;;;;;;5.15;2.80;;;;;;;;;;1761947;81;21057;-71
2022/02/21 07:29:03;;;;;;;5.72;3.58;;;;;;;;;;1754847;81;21010;-68
2022/02/21 07:31:28;;;;;;;7.50;3.87;;;;;;;;;;1757801;81;20992;-69
2022/02/21 07:33:54;;;;;;;7.17;3.30;;;;;;;;;;1751722;81;21028;-69
2022/02/21 07:36:20;;;;;;;6.30;3.72;;;;;;;;;;1758344;81;21004;-69
2022/02/21 07:38:47;;;;;;;5.65;3.30;;;;;;;;;;1756700;81;21141;-70
2022/02/21 07:41:13;;;;;;;10.38;4.80;;;;;;;;;;1752125;81;20984;-70
2022/02/21 07:43:39;;;;;;;5.60;3.12;;;;;;;;;;1743578;81;21526;-70
2022/02/21 07:46:05;;;;;;;6.47;3.60;;;;;;;;;;1752835;81;21394;-70
2022/02/21 07:48:31;;;;;;;4.42;2.85;;;;;;;;;;1757009;81;21096;-69
2022/02/21 07:50:57;;;;;;;5.65;3.47;;;;;;;;;;1741281;81;21139;-69
2022/02/21 07:53:23;;;;;;;6.22;3.80;;;;;;;;;;1744673;81;21597;-67
2022/02/21 07:55:50;;;;;;;5.53;3.37;;;;;;;;;;1745115;81;21055;-67
2022/02/21 07:58:16;;;;;;;4.85;3.30;;;;;;;;;;1744995;81;21502;-66
2022/02/21 08:00:42;;;;;;;3.30;2.58;;;;;;;;;;1744331;81;21024;-67
2022/02/21 08:03:08;;;;;;;6.50;3.37;;;;;;;;;;1747740;80;21075;-64
2022/02/21 08:05:36;;;;;;;5.83;4.35;;;;;;;;;;1755755;81;21026;-65
2022/02/21 08:08:04;;;;;;;6.95;3.70;;;;;;;;;;1716376;82;21008;-66
2022/02/21 08:10:30;;;;;;;6.28;3.85;;;;;;;;;;1708103;83;21036;-67
2022/02/21 08:12:56;;;;;;;7.05;3.65;;;;;;;;;;1713568;83;21375;-67
2022/02/21 08:15:22;;;;;;;6.15;3.92;;;;;;;;;;1709199;82;21095;-67
2022/02/21 08:17:48;;;;;;;6.90;3.50;;;;;;;;;;1716531;83;21487;-67
2022/02/21 08:20:15;;;;;;;6.75;4.35;;;;;;;;;;1710496;83;21047;-67
2022/02/21 08:22:41;;;;;;;6.85;4.37;;;;;;;;;;1712108;83;21003;-68
2022/02/21 08:25:07;;;;;;;6.25;3.20;;;;;;;;;;1716260;83;21463;-67
2022/02/21 08:27:38;;;;;;;5.87;3.45;;;;;;;;;;1712737;83;21018;-67
2022/02/21 08:30:04;;;;;;;7.42;4.03;;;;;;;;;;1715771;83;21575;-68
2022/02/21 08:32:30;;;;;;;5.95;3.70;;;;;;;;;;1710043;83;21487;-68
2022/02/21 08:34:56;;;;;;;5.90;3.27;;;;;;;;;;1714655;83;21083;-69
2022/02/21 08:37:22;;;;;;;6.30;3.50;;;;;;;;;;1713534;82;21082;-69
2022/02/21 08:39:48;;;;;;;5.87;3.47;;;;;;;;;;1712793;83;21055;-68
2022/02/21 08:42:15;;;;;;;5.40;3.22;;;;;;;;;;1715133;83;21087;-69
2022/02/21 08:44:40;;;;;;;7.33;3.55;;;;;;;;;;1715540;83;21026;-67
2022/02/21 08:47:06;;;;;;;6.55;3.62;;;;;;;;;;1712772;83;21047;-69
2022/02/21 08:49:32;;;;;;;6.72;3.62;;;;;;;;;;1716781;83;21551;-71
2022/02/21 08:51:58;;;;;;;7.42;4.33;;;;;;;;;;1715136;83;21083;-68
2022/02/21 08:54:24;;;;;;;5.90;3.22;;;;;;;;;;1717083;83;21024;-67
2022/02/21 08:56:50;;;;;;;5.05;3.40;;;;;;;;;;1709677;83;21497;-67
2022/02/21 08:59:18;;;;;;;6.95;3.98;;;;;;;;;;1714094;83;21040;-66
2022/02/21 09:01:45;;;;;;;6.47;3.60;;;;;;;;;;1716637;82;21053;-68
2022/02/21 09:04:11;;;;;;;7.58;4.15;;;;;;;;;;1717068;83;21015;-69
2022/02/21 09:06:37;;;;;;;7.37;3.65;;;;;;;;;;1731455;81;21528;-68
2022/02/21 09:09:03;;;;;;;5.60;2.75;;;;;;;;;;1742966;81;21006;-66
2022/02/21 09:11:29;;;;;;;5.15;3.25;;;;;;;;;;1755198;81;21034;-67
2022/02/21 09:13:56;;;;;;;6.35;3.30;;;;;;;;;;1761499;81;21049;-68
2022/02/21 09:16:21;;;;;;;6.33;3.40;;;;;;;;;;1742881;81;21008;-68
2022/02/21 09:18:48;;;;;;;5.12;3.22;;;;;;;;;;1751622;81;21554;-68
2022/02/21 09:21:15;;;;;;;5.30;2.90;;;;;;;;;;1756868;81;21526;-69
2022/02/21 09:23:41;;;;;;;6.92;3.52;;;;;;;;;;1752924;81;21563;-68
2022/02/21 09:26:07;;;;;;;4.55;3.00;;;;;;;;;;1756466;80;21053;-69
2022/02/21 09:28:33;;;;;;;5.53;2.75;;;;;;;;;;1750465;80;21600;-68
2022/02/21 09:30:59;;;;;;;5.28;2.90;;;;;;;;;;1748964;81;21000;-68
2022/02/21 09:33:25;;;;;;;9.45;4.50;;;;;;;;;;1758699;81;21028;-69
2022/02/21 09:35:51;;;;;;;11.20;4.22;;;;;;;;;;1754878;81;21041;-69
2022/02/21 09:38:17;;;;;;;6.47;3.70;;;;;;;;;;1751517;81;21054;-68
2022/02/21 09:40:50;;;;;;;7.47;3.40;;;;;;;;;;1741954;81;21459;-68
2022/02/21 09:43:15;;;;;;;6.37;3.87;;;;;;;;;;1746396;81;21574;-67
2022/02/21 09:45:41;;;;;;;4.95;2.92;;;;;;;;;;1754560;81;21053;-68
2022/02/21 09:50:18;;;;;;;5.03;2.80;;;;;;;;;;1804382;79;23012;-67
2022/02/21 09:52:44;;;;;;;6.28;3.05;;;;;;;;;;1761896;81;20950;-68
2022/02/21 09:55:10;;;;;;;5.17;3.15;;;;;;;;;;1731486;81;21016;-66
2022/02/21 09:57:36;;;;;;;3.72;2.70;;;;;;;;;;1763867;80;21022;-68
2022/02/21 10:00:03;;;;;;;6.00;3.60;;;;;;;;;;1762089;80;21566;-69
2022/02/21 10:02:33;;;;;;;5.53;2.98;;;;;;;;;;1748108;80;21119;-69
2022/02/21 10:05:09;;;;;;;5.45;3.20;;;;;;;;;;1735126;82;21016;-69
2022/02/21 10:07:39;;;;;;;8.45;3.22;;;;;;;;;;1732317;82;21056;-67
2022/02/21 10:10:07;;;;;;;5.95;3.67;;;;;;;;;;1737126;82;21536;-68
2022/02/21 10:12:36;;;;;;;5.22;3.35;;;;;;;;;;1734119;82;21008;-68
2022/02/21 10:15:15;;;;;;;5.80;3.42;;;;;;;;;;1736856;82;21080;-68
2022/02/21 10:17:41;;;;;;;7.15;4.33;;;;;;;;;;1740137;82;21024;-66
2022/02/21 10:20:09;;;;;;;5.55;2.98;;;;;;;;;;1738264;82;21040;-67
2022/02/21 10:22:36;;;;;;;8.55;3.50;;;;;;;;;;1735983;82;21088;-66
2022/02/21 10:25:05;;;;;;;5.62;3.40;;;;;;;;;;1733853;82;21408;-69
2022/02/21 10:27:30;;;;;;;8.83;3.95;;;;;;;;;;1724498;82;21087;-68
2022/02/21 10:30:02;;;;;;;6.12;3.17;;;;;;;;;;1729039;82;21499;-69
2022/02/21 10:32:29;;;;;;;9.28;3.35;;;;;;;;;;1741737;82;21020;-68
2022/02/21 10:34:55;;;;;;;5.05;3.62;;;;;;;;;;1734694;82;21009;-69
2022/02/21 10:37:23;;;;;;;5.78;2.87;;;;;;;;;;1744564;82;20980;-68
2022/02/21 10:39:49;;;;;;;5.45;2.83;;;;;;;;;;1732093;82;21005;-69
2022/02/21 10:42:25;;;;;;;5.75;3.30;;;;;;;;;;1735657;82;20969;-69
2022/02/21 10:44:51;;;;;;;5.87;3.75;;;;;;;;;;1738450;82;20961;-69
2022/02/21 10:47:17;;;;;;;7.67;3.62;;;;;;;;;;1735579;82;21020;-68
2022/02/21 10:49:52;;;;;;;6.55;3.80;;;;;;;;;;1741299;81;20994;-68
2022/02/21 10:52:22;;;;;;;7.45;4.20;;;;;;;;;;1735771;82;21040;-68
2022/02/21 10:54:49;;;;;;;5.12;3.12;;;;;;;;;;1736083;82;21021;-70
2022/02/21 10:57:17;;;;;;;7.80;3.42;;;;;;;;;;1735867;82;21544;-69
2022/02/21 10:59:43;;;;;;;6.22;3.22;;;;;;;;;;1739542;82;21045;-69
2022/02/21 11:02:14;;;;;;;4.55;2.95;;;;;;;;;;1738018;82;21543;-70
2022/02/21 11:04:37;;;;;;;6.03;3.62;;;;;;;;;;1746413;80;21005;-72
2022/02/21 11:07:03;;;;;;;5.37;3.40;;;;;;;;;;1749392;80;21016;-68
2022/02/21 11:09:29;;;;;;;5.92;4.15;;;;;;;;;;1734758;81;21548;-68
2022/02/21 11:11:57;;;;;;;6.58;2.95;;;;;;;;;;1705030;82;21071;-67
2022/02/21 11:14:26;;;;;;;6.20;3.37;;;;;;;;;;1691398;84;21024;-66
2022/02/21 11:16:52;;;;;;;6.12;3.30;;;;;;;;;;1700378;84;21035;-66
2022/02/21 11:19:18;;;;;;;7.03;3.40;;;;;;;;;;1683685;84;21079;-66
2022/02/21 11:21:45;;;;;;;7.33;3.20;;;;;;;;;;1698257;84;21076;-67
2022/02/21 11:24:11;;;;;;;7.05;3.80;;;;;;;;;;1687768;84;21049;-67
2022/02/21 11:26:39;;;;;;;4.95;3.30;;;;;;;;;;1738204;82;21048;-67
2022/02/21 11:29:06;;;;;;;5.12;3.75;;;;;;;;;;1736850;81;21000;-66
2022/02/21 11:31:33;;;;;;;6.85;3.08;;;;;;;;;;1740512;82;21004;-67
2022/02/21 11:34:02;;;;;;;4.37;2.90;;;;;;;;;;1735862;82;21001;-68
2022/02/21 11:36:29;;;;;;;6.10;3.70;;;;;;;;;;1750228;80;21060;-67
2022/02/21 11:38:55;;;;;;;6.33;3.25;;;;;;;;;;1736898;82;21100;-68
2022/02/21 11:41:23;;;;;;;8.68;3.67;;;;;;;;;;1735044;82;21507;-66
2022/02/21 11:43:51;;;;;;;5.53;3.40;;;;;;;;;;1736554;82;20993;-68
2022/02/21 11:46:21;;;;;;;5.33;3.00;;;;;;;;;;1739137;82;20997;-67
2022/02/21 11:48:48;;;;;;;7.85;4.80;;;;;;;;;;1736893;81;21571;-67
2022/02/21 11:51:33;;;;;;;5.40;3.30;;;;;;;;;;1736122;82;21508;-67
2022/02/21 11:54:13;;;;;;;7.53;3.47;;;;;;;;;;1731386;82;20967;-67
2022/02/21 11:56:55;;;;;;;6.15;3.35;;;;;;;;;;1738718;81;21024;-67
2022/02/21 11:59:23;;;;;;;5.58;3.00;;;;;;;;;;1735858;82;21035;-67
2022/02/21 12:02:10;;;;;;;7.53;3.92;;;;;;;;;;1738757;82;21112;-67
2022/02/21 12:04:48;;;;;;;5.53;3.05;;;;;;;;;;1742377;82;21028;-68
2022/02/21 12:07:21;;;;;;;5.42;3.17;;;;;;;;;;1739624;82;21048;-69
2022/02/21 12:10:06;;;;;;;7.22;3.62;;;;;;;;;;1739436;82;21595;-68
2022/02/21 12:12:52;;;;;;;7.90;3.30;;;;;;;;;;1737528;82;21004;-68
2022/02/21 12:15:18;;;;;;;7.72;3.80;;;;;;;;;;1739857;82;21449;-69
2022/02/21 12:17:44;;;;;;;5.15;3.00;;;;;;;;;;1740593;82;20981;-67
2022/02/21 12:20:30;;;;;;;5.22;2.60;;;;;;;;;;1738594;81;20974;-69
2022/02/21 12:23:07;;;;;;;4.20;2.77;;;;;;;;;;1735160;82;21000;-68
2022/02/21 12:25:39;;;;;;;4.87;2.80;;;;;;;;;;1737962;82;21465;-67
2022/02/21 12:28:11;;;;;;;6.03;2.90;;;;;;;;;;1743735;82;21094;-68
2022/02/21 12:30:38;;;;;;;4.53;2.67;;;;;;;;;;1737934;82;21009;-68
2022/02/21 12:33:04;;;;;;;6.25;3.45;;;;;;;;;;1735362;82;20969;-68
2022/02/21 12:35:48;;;;;;;5.78;3.00;;;;;;;;;;1736662;81;20985;-68
2022/02/21 12:38:15;;;;;;;5.23;3.60;;;;;;;;;;1734604;82;21025;-68
2022/02/21 12:40:54;;;;;;;6.05;3.45;;;;;;;;;;1735605;82;20984;-68
2022/02/21 12:43:20;;;;;;;7.42;2.85;;;;;;;;;;1716618;82;21021;-67
2022/02/21 12:45:46;;;;;;;7.35;3.17;;;;;;;;;;1737087;82;21027;-67
2022/02/21 12:48:12;;;;;;;6.35;3.00;;;;;;;;;;1736803;82;21065;-68
2022/02/21 12:50:39;;;;;;;8.45;3.27;;;;;;;;;;1729169;82;21063;-69
2022/02/21 12:53:07;;;;;;;7.92;3.60;;;;;;;;;;1737234;82;20977;-68
2022/02/21 12:55:35;;;;;;;3.67;2.60;;;;;;;;;;1728014;82;21024;-68
2022/02/21 12:58:01;;;;;;;5.95;3.30;;;;;;;;;;1727515;82;21052;-68
2022/02/21 13:00:34;;;;;;;4.33;2.80;;;;;;;;;;1705365;82;21012;-68
2022/02/21 13:03:00;;;;;;;6.03;2.95;;;;;;;;;;1730253;82;21044;-66
2022/02/21 13:05:26;;;;;;;4.55;2.47;;;;;;;;;;1733422;82;21517;-69
2022/02/21 13:07:54;;;;;;;6.17;3.20;;;;;;;;;;1735011;82;21038;-69
2022/02/21 13:10:20;;;;;;;4.53;2.75;;;;;;;;;;1733693;82;21025;-69
2022/02/21 13:12:49;;;;;;;7.58;3.77;;;;;;;;;;1733746;82;21524;-68
2022/02/21 13:15:15;;;;;;;5.83;2.33;;;;;;;;;;1727843;82;20970;-67
2022/02/21 13:17:41;;;;;;;5.50;2.92;;;;;;;;;;1733004;82;21516;-67
2022/02/21 13:20:11;;;;;;;5.28;3.20;;;;;;;;;;1731423;82;20978;-69
2022/02/21 13:22:37;;;;;;;5.58;2.92;;;;;;;;;;1731529;82;21036;-68
2022/02/21 13:25:04;;;;;;;4.55;2.50;;;;;;;;;;1731763;82;21678;-69
2022/02/21 13:27:33;;;;;;;5.25;3.40;;;;;;;;;;1729776;82;21531;-68
2022/02/21 13:29:59;;;;;;;5.12;2.90;;;;;;;;;;1730663;82;21597;-68
2022/02/21 13:32:32;;;;;;;7.47;3.60;;;;;;;;;;1728340;82;21052;-68
2022/02/21 13:35:09;;;;;;;8.05;4.60;;;;;;;;;;1676339;85;21248;-68
2022/02/21 13:37:37;;;;;;;6.03;3.42;;;;;;;;;;1677398;85;21093;-67
2022/02/21 13:40:05;;;;;;;5.47;3.00;;;;;;;;;;1694872;84;20973;-67
2022/02/21 13:42:33;;;;;;;6.00;3.20;;;;;;;;;;1683302;84;21005;-67
2022/02/21 13:45:17;;;;;;;5.80;3.27;;;;;;;;;;1654034;85;21037;-68
2022/02/21 13:47:44;;;;;;;5.67;3.00;;;;;;;;;;1730469;82;21547;-67
2022/02/21 13:50:29;;;;;;;6.25;3.33;;;;;;;;;;1732827;82;21408;-69
2022/02/21 13:52:54;;;;;;;6.33;2.83;;;;;;;;;;1734100;82;21016;-67
2022/02/21 13:55:22;;;;;;;5.17;3.20;;;;;;;;;;1730390;82;21532;-68
2022/02/21 13:57:59;;;;;;;6.20;2.95;;;;;;;;;;1734109;82;21052;-68
2022/02/21 14:00:36;;;;;;;5.97;3.00;;;;;;;;;;1727732;82;21711;-69
2022/02/21 14:03:02;;;;;;;5.03;2.65;;;;;;;;;;1732425;82;21065;-69
2022/02/21 14:05:28;;;;;;;8.13;3.30;;;;;;;;;;1735602;82;21496;-70
2022/02/21 14:07:54;;;;;;;4.67;2.90;;;;;;;;;;1733222;82;20969;-69
2022/02/21 14:10:21;;;;;;;5.22;3.30;;;;;;;;;;1733291;82;20982;-69
2022/02/21 14:12:56;;;;;;;4.97;3.30;;;;;;;;;;1732071;82;21033;-68
2022/02/21 14:15:22;;;;;;;;;;;;;;;;;;1734875;82;20981;-66
2022/02/21 14:17:48;;;;;;;7.15;3.17;;;;;;;;;;1727855;82;20162;-67
2022/02/21 14:20:14;;;;;;;8.25;2.92;;;;;;;;;;1728030;82;21064;-68
2022/02/21 14:22:40;;;;;;;6.22;3.60;;;;;;;;;;1729470;82;21042;-67
2022/02/21 14:25:06;;;;;;;7.33;3.80;;;;;;;;;;1733962;82;21631;-69
2022/02/21 14:27:33;;;;;;;6.40;3.98;;;;;;;;;;1730115;82;21040;-67
2022/02/21 14:30:01;;;;;;;6.92;3.52;;;;;;;;;;1725994;82;21005;-68
2022/02/21 14:32:27;;;;;;;7.47;4.28;;;;;;;;;;1720179;82;21057;-68
2022/02/21 14:34:53;;;;;;;6.20;3.75;;;;;;;;;;1671505;85;21100;-68
2022/02/21 14:37:19;;;;;;;5.65;4.03;;;;;;;;;;1671033;85;21082;-68
2022/02/21 14:39:45;;;;;;;6.15;3.40;;;;;;;;;;1697717;84;21048;-69
2022/02/21 14:42:11;;;;;;;5.83;3.33;;;;;;;;;;1676049;85;21125;-69
2022/02/21 14:44:38;;;;;;;6.10;3.30;;;;;;;;;;1677865;85;21005;-68
2022/02/21 14:47:04;;;;;;;5.65;3.05;;;;;;;;;;1690281;84;21087;-68